createdAt,value
2023-01-17T00:00:03.346Z,3.40
2023-01-17T00:01:03.355Z,3.40
2023-01-17T00:02:03.310Z,3.40
2023-01-17T00:03:03.504Z,3.40
2023-01-17T00:04:03.412Z,3.40
2023-01-17T00:05:03.381Z,3.40
2023-01-17T00:06:03.395Z,3.40
2023-01-17T00:07:03.351Z,3.40
2023-01-17T00:08:03.479Z,3.40
2023-01-17T00:09:03.509Z,3.40
2023-01-17T00:10:03.567Z,3.40
2023-01-17T00:11:03.519Z,3.40
2023-01-17T00:12:03.471Z,3.40
2023-01-17T00:13:02.701Z,3.40
2023-01-17T00:14:02.692Z,3.40
2023-01-17T00:15:02.810Z,3.40
2023-01-17T00:16:02.734Z,3.40
2023-01-17T00:17:02.778Z,3.40
2023-01-17T00:18:02.888Z,3.40
2023-01-17T00:19:02.860Z,3.40
2023-01-17T00:20:02.821Z,3.40
2023-01-17T00:21:02.722Z,3.40
2023-01-17T00:22:02.786Z,3.40
2023-01-17T00:23:02.720Z,3.40
2023-01-17T00:24:02.723Z,3.40
2023-01-17T00:25:02.898Z,3.40
2023-01-17T00:26:02.905Z,3.40
2023-01-17T00:27:02.837Z,3.40
2023-01-17T00:28:02.888Z,3.40
2023-01-17T00:29:02.875Z,3.40
2023-01-17T00:30:03.018Z,3.50
2023-01-17T00:31:03.098Z,3.40
2023-01-17T00:32:02.974Z,3.40
2023-01-17T00:33:03.061Z,3.40
2023-01-17T00:34:03.210Z,3.50
2023-01-17T00:35:03.179Z,3.40
2023-01-17T00:36:03.127Z,3.40
2023-01-17T00:37:03.184Z,3.40
2023-01-17T00:38:03.251Z,3.40
2023-01-17T00:39:03.351Z,3.40
2023-01-17T00:40:03.356Z,3.40
2023-01-17T00:41:03.440Z,3.40
2023-01-17T00:42:03.404Z,3.40
2023-01-17T00:43:03.484Z,3.40
2023-01-17T00:44:02.676Z,3.50
2023-01-17T00:45:03.564Z,3.50
2023-01-17T00:46:02.847Z,3.50
2023-01-17T00:47:02.843Z,3.50
2023-01-17T00:48:02.801Z,3.50
2023-01-17T00:49:02.903Z,3.50
2023-01-17T00:50:02.914Z,3.50
2023-01-17T00:51:02.831Z,3.50
2023-01-17T00:52:02.835Z,3.50
2023-01-17T00:53:02.920Z,3.50
2023-01-17T00:54:02.899Z,3.50
2023-01-17T00:55:03.039Z,3.50
2023-01-17T00:56:03.079Z,3.50
2023-01-17T00:57:03.151Z,3.50
2023-01-17T00:58:03.054Z,3.50
2023-01-17T00:59:03.127Z,3.50
2023-01-17T01:00:03.070Z,3.50
2023-01-17T01:01:03.698Z,3.50
2023-01-17T01:02:03.357Z,3.50
2023-01-17T01:03:03.211Z,3.50
2023-01-17T01:04:03.298Z,3.50
2023-01-17T01:05:03.305Z,3.50
2023-01-17T01:06:03.198Z,3.50
2023-01-17T01:07:03.176Z,3.50
2023-01-17T01:08:03.204Z,3.40
2023-01-17T01:09:03.272Z,3.50
2023-01-17T01:10:03.458Z,3.50
2023-01-17T01:11:03.581Z,3.50
2023-01-17T01:12:02.596Z,3.40
2023-01-17T01:13:02.703Z,3.40
2023-01-17T01:14:02.610Z,3.40
2023-01-17T01:15:02.664Z,3.50
2023-01-17T01:16:02.616Z,3.40
2023-01-17T01:17:02.697Z,3.50
2023-01-17T01:18:02.713Z,3.40
2023-01-17T01:19:02.641Z,3.50
2023-01-17T01:20:03.652Z,3.40
2023-01-17T01:21:03.534Z,3.40
2023-01-17T01:22:02.644Z,3.40
2023-01-17T01:23:02.700Z,3.40
2023-01-17T01:24:03.025Z,3.40
2023-01-17T01:25:02.967Z,3.40
2023-01-17T01:26:02.887Z,3.40
2023-01-17T01:27:02.941Z,3.40
2023-01-17T01:28:03.256Z,3.40
2023-01-17T01:29:03.392Z,3.40
2023-01-17T01:30:03.448Z,3.40
2023-01-17T01:31:03.409Z,3.40
2023-01-17T01:32:03.500Z,3.40
2023-01-17T01:33:03.505Z,3.40
2023-01-17T01:34:03.405Z,3.40
2023-01-17T01:35:03.501Z,3.40
2023-01-17T01:36:03.494Z,3.40
2023-01-17T01:37:03.509Z,3.40
2023-01-17T01:38:03.607Z,3.40
2023-01-17T01:39:03.521Z,3.40
2023-01-17T01:40:03.491Z,3.40
2023-01-17T01:41:03.440Z,3.40
2023-01-17T01:42:03.387Z,3.30
2023-01-17T01:43:03.520Z,3.30
2023-01-17T01:44:03.619Z,3.30
2023-01-17T01:45:02.672Z,3.30
2023-01-17T01:46:02.741Z,3.30
2023-01-17T01:47:02.889Z,3.30
2023-01-17T01:48:03.059Z,3.30
2023-01-17T01:49:03.091Z,3.30
2023-01-17T01:50:03.156Z,3.30
2023-01-17T01:51:03.158Z,3.30
2023-01-17T01:52:03.142Z,3.30
2023-01-17T01:53:03.160Z,3.30
2023-01-17T01:54:03.269Z,3.30
2023-01-17T01:55:03.253Z,3.30
2023-01-17T01:56:03.244Z,3.30
2023-01-17T01:57:03.208Z,3.30
2023-01-17T01:58:03.277Z,3.30
2023-01-17T01:59:03.341Z,3.30
2023-01-17T02:00:03.248Z,3.30
2023-01-17T02:01:03.325Z,3.30
2023-01-17T02:02:03.373Z,3.30
2023-01-17T02:03:03.381Z,3.30
2023-01-17T02:04:03.473Z,3.30
2023-01-17T02:05:04.772Z,3.30
2023-01-17T02:06:03.446Z,3.30
2023-01-17T02:07:02.581Z,3.30
2023-01-17T02:08:02.578Z,3.30
2023-01-17T02:09:02.669Z,3.30
2023-01-17T02:10:02.797Z,3.30
2023-01-17T02:11:02.880Z,3.30
2023-01-17T02:12:02.929Z,3.30
2023-01-17T02:13:02.901Z,3.30
2023-01-17T02:14:02.855Z,3.30
2023-01-17T02:15:02.853Z,3.30
2023-01-17T02:16:02.992Z,3.30
2023-01-17T02:17:03.206Z,3.30
2023-01-17T02:18:03.202Z,3.30
2023-01-17T02:19:03.278Z,3.30
2023-01-17T02:20:03.390Z,3.20
2023-01-17T02:21:03.462Z,3.20
2023-01-17T02:22:03.493Z,3.30
2023-01-17T02:23:02.921Z,3.20
2023-01-17T02:24:02.816Z,3.20
2023-01-17T02:25:02.720Z,3.20
2023-01-17T02:26:02.712Z,3.20
2023-01-17T02:27:02.595Z,3.30
2023-01-17T02:28:03.020Z,3.20
2023-01-17T02:29:03.013Z,3.20
2023-01-17T02:30:03.025Z,3.20
2023-01-17T02:31:03.093Z,3.20
2023-01-17T02:32:03.159Z,3.20
2023-01-17T02:33:03.102Z,3.20
2023-01-17T02:34:03.163Z,3.20
2023-01-17T02:35:03.167Z,3.20
2023-01-17T02:36:03.215Z,3.20
2023-01-17T02:37:03.272Z,3.20
2023-01-17T02:38:03.213Z,3.20
2023-01-17T02:39:03.383Z,3.30
2023-01-17T02:40:03.402Z,3.30
2023-01-17T02:41:03.392Z,3.30
2023-01-17T02:42:03.316Z,3.30
2023-01-17T02:43:03.339Z,3.30
2023-01-17T02:44:03.267Z,3.30
2023-01-17T02:45:03.269Z,3.30
2023-01-17T02:46:03.331Z,3.30
2023-01-17T02:47:03.238Z,3.30
2023-01-17T02:48:03.329Z,3.30
2023-01-17T02:49:03.238Z,3.20
2023-01-17T02:50:03.274Z,3.20
2023-01-17T02:51:03.320Z,3.20
2023-01-17T02:52:03.533Z,3.20
2023-01-17T02:53:03.551Z,3.20
2023-01-17T02:54:03.492Z,3.20
2023-01-17T02:55:03.530Z,3.20
2023-01-17T02:56:03.556Z,3.20
2023-01-17T02:57:03.522Z,3.10
2023-01-17T02:58:03.447Z,3.10
2023-01-17T02:59:03.537Z,3.10
2023-01-17T03:00:03.450Z,3.10
2023-01-17T03:01:03.558Z,3.10
2023-01-17T03:02:03.543Z,3.10
2023-01-17T03:03:03.430Z,3.10
2023-01-17T03:04:03.398Z,3.10
2023-01-17T03:05:03.492Z,3.10
2023-01-17T03:06:03.432Z,3.10
2023-01-17T03:07:03.513Z,3.10
2023-01-17T03:08:03.550Z,3.10
2023-01-17T03:09:02.666Z,3.10
2023-01-17T03:10:02.591Z,3.10
2023-01-17T03:11:02.685Z,3.10
2023-01-17T03:12:02.927Z,3.10
2023-01-17T03:13:02.960Z,3.10
2023-01-17T03:14:02.976Z,3.10
2023-01-17T03:15:03.046Z,3.00
2023-01-17T03:16:03.017Z,3.10
2023-01-17T03:17:03.046Z,3.00
2023-01-17T03:18:03.049Z,3.00
2023-01-17T03:19:03.177Z,3.00
2023-01-17T03:20:03.226Z,3.00
2023-01-17T03:21:03.473Z,3.00
2023-01-17T03:22:03.256Z,3.00
2023-01-17T03:23:03.193Z,3.00
2023-01-17T03:24:03.280Z,3.00
2023-01-17T03:25:03.318Z,3.00
2023-01-17T03:26:03.358Z,3.00
2023-01-17T03:27:03.438Z,3.00
2023-01-17T03:28:03.338Z,3.00
2023-01-17T03:29:03.376Z,2.90
2023-01-17T03:30:03.301Z,3.00
2023-01-17T03:31:03.478Z,2.90
2023-01-17T03:32:03.459Z,2.90
2023-01-17T03:33:03.373Z,3.00
2023-01-17T03:34:03.376Z,2.90
2023-01-17T03:35:03.339Z,2.90
2023-01-17T03:36:03.406Z,2.90
2023-01-17T03:37:03.356Z,2.90
2023-01-17T03:38:03.365Z,2.90
2023-01-17T03:39:03.412Z,2.90
2023-01-17T03:40:03.377Z,2.90
2023-01-17T03:41:03.376Z,2.90
2023-01-17T03:42:03.329Z,2.90
2023-01-17T03:43:03.391Z,2.90
2023-01-17T03:44:03.353Z,2.90
2023-01-17T03:45:03.355Z,2.90
2023-01-17T03:46:03.378Z,2.90
2023-01-17T03:47:03.254Z,2.90
2023-01-17T03:48:03.300Z,2.90
2023-01-17T03:49:02.892Z,2.90
2023-01-17T03:50:02.948Z,2.90
2023-01-17T03:51:02.981Z,2.90
2023-01-17T03:52:03.072Z,2.90
2023-01-17T03:53:03.036Z,2.90
2023-01-17T03:54:02.996Z,2.90
2023-01-17T03:55:03.065Z,2.90
2023-01-17T03:56:03.220Z,2.90
2023-01-17T03:57:03.429Z,2.80
2023-01-17T03:58:03.542Z,2.80
2023-01-17T03:59:02.623Z,2.80
2023-01-17T04:00:03.521Z,2.90
2023-01-17T04:01:03.653Z,2.90
2023-01-17T04:02:02.933Z,2.90
2023-01-17T04:03:02.769Z,2.90
2023-01-17T04:04:02.837Z,2.90
2023-01-17T04:05:02.869Z,2.90
2023-01-17T04:06:02.940Z,2.90
2023-01-17T04:07:02.876Z,2.90
2023-01-17T04:08:03.329Z,2.90
2023-01-17T04:09:03.266Z,2.90
2023-01-17T04:10:03.264Z,2.90
2023-01-17T04:11:03.499Z,2.90
2023-01-17T04:12:04.101Z,2.90
2023-01-17T04:13:03.383Z,2.90
2023-01-17T04:14:03.367Z,2.90
2023-01-17T04:15:03.310Z,2.90
2023-01-17T04:16:03.335Z,2.90
2023-01-17T04:17:03.290Z,2.90
2023-01-17T04:18:03.273Z,2.90
2023-01-17T04:19:03.583Z,2.90
2023-01-17T04:20:03.578Z,2.90
2023-01-17T04:21:03.572Z,2.90
2023-01-17T04:22:03.572Z,2.90
2023-01-17T04:23:03.530Z,2.90
2023-01-17T04:24:03.566Z,2.90
2023-01-17T04:25:03.541Z,2.90
2023-01-17T04:26:03.590Z,2.90
2023-01-17T04:27:03.469Z,2.90
2023-01-17T04:28:03.578Z,2.90
2023-01-17T04:29:03.460Z,2.90
2023-01-17T04:30:03.501Z,3.00
2023-01-17T04:31:03.636Z,2.90
2023-01-17T04:32:02.741Z,3.00
2023-01-17T04:33:02.857Z,3.00
2023-01-17T04:34:02.867Z,3.00
2023-01-17T04:35:02.838Z,3.00
2023-01-17T04:36:02.847Z,3.00
2023-01-17T04:37:03.131Z,3.00
2023-01-17T04:38:03.077Z,3.00
2023-01-17T04:39:03.162Z,3.00
2023-01-17T04:40:03.106Z,3.00
2023-01-17T04:41:03.102Z,3.00
2023-01-17T04:42:03.219Z,3.00
2023-01-17T04:43:03.099Z,3.00
2023-01-17T04:44:03.168Z,3.00
2023-01-17T04:45:03.098Z,3.00
2023-01-17T04:46:03.161Z,3.00
2023-01-17T04:47:03.119Z,3.00
2023-01-17T04:48:03.127Z,3.00
2023-01-17T04:49:03.113Z,3.00
2023-01-17T04:50:03.162Z,3.00
2023-01-17T04:51:03.123Z,3.00
2023-01-17T04:52:03.167Z,3.00
2023-01-17T04:53:03.082Z,3.00
2023-01-17T04:54:03.204Z,3.00
2023-01-17T04:55:03.277Z,3.00
2023-01-17T04:56:03.163Z,3.00
2023-01-17T04:57:03.247Z,3.00
2023-01-17T04:58:03.227Z,3.00
2023-01-17T04:59:03.250Z,3.00
2023-01-17T05:00:03.322Z,3.00
2023-01-17T05:01:03.309Z,3.00
2023-01-17T05:02:03.277Z,3.00
2023-01-17T05:03:03.390Z,3.00
2023-01-17T05:04:03.470Z,3.00
2023-01-17T05:05:03.438Z,3.00
2023-01-17T05:06:03.334Z,3.00
2023-01-17T05:07:03.435Z,3.00
2023-01-17T05:08:03.461Z,3.00
2023-01-17T05:09:02.673Z,3.00
2023-01-17T05:10:02.758Z,3.00
2023-01-17T05:11:02.806Z,3.00
2023-01-17T05:12:02.819Z,2.90
2023-01-17T05:13:02.822Z,2.90
2023-01-17T05:14:02.823Z,2.90
2023-01-17T05:15:02.813Z,2.90
2023-01-17T05:16:03.047Z,2.90
2023-01-17T05:17:03.157Z,2.90
2023-01-17T05:18:03.119Z,2.90
2023-01-17T05:19:03.055Z,2.90
2023-01-17T05:20:03.069Z,2.90
2023-01-17T05:21:03.034Z,2.90
2023-01-17T05:22:03.080Z,2.90
2023-01-17T05:23:03.076Z,2.90
2023-01-17T05:24:03.017Z,2.80
2023-01-17T05:25:03.207Z,2.80
2023-01-17T05:26:03.384Z,2.80
2023-01-17T05:27:03.520Z,2.80
2023-01-17T05:28:03.488Z,2.80
2023-01-17T05:29:03.492Z,2.80
2023-01-17T05:30:03.583Z,2.80
2023-01-17T05:31:03.619Z,2.80
2023-01-17T05:32:03.465Z,2.80
2023-01-17T05:33:03.463Z,2.80
2023-01-17T05:34:03.496Z,2.80
2023-01-17T05:35:03.530Z,2.80
2023-01-17T05:36:02.739Z,2.80
2023-01-17T05:37:02.888Z,2.80
2023-01-17T05:38:02.878Z,2.80
2023-01-17T05:39:02.879Z,2.80
2023-01-17T05:40:03.128Z,2.80
2023-01-17T05:41:03.111Z,2.80
2023-01-17T05:42:03.229Z,2.80
2023-01-17T05:43:03.325Z,2.80
2023-01-17T05:44:03.307Z,2.80
2023-01-17T05:45:03.246Z,2.80
2023-01-17T05:46:03.242Z,2.80
2023-01-17T05:47:03.193Z,2.80
2023-01-17T05:48:03.123Z,2.80
2023-01-17T05:49:03.221Z,2.80
2023-01-17T05:50:03.168Z,2.80
2023-01-17T05:51:03.120Z,2.80
2023-01-17T05:52:03.179Z,2.80
2023-01-17T05:53:03.100Z,2.80
2023-01-17T05:54:03.034Z,2.80
2023-01-17T05:55:03.315Z,2.80
2023-01-17T05:56:03.374Z,2.80
2023-01-17T05:57:03.318Z,2.80
2023-01-17T05:58:03.235Z,2.80
2023-01-17T05:59:03.217Z,2.80
2023-01-17T06:00:03.256Z,2.80
2023-01-17T06:01:03.340Z,2.80
2023-01-17T06:02:03.248Z,2.90
2023-01-17T06:03:03.319Z,2.80
2023-01-17T06:04:03.411Z,2.90
2023-01-17T06:05:03.683Z,2.90
2023-01-17T06:06:03.559Z,2.90
2023-01-17T06:07:03.538Z,2.90
2023-01-17T06:08:03.535Z,2.80
2023-01-17T06:09:03.559Z,2.90
2023-01-17T06:10:03.388Z,2.90
2023-01-17T06:11:03.476Z,2.90
2023-01-17T06:12:03.384Z,2.90
2023-01-17T06:13:03.386Z,2.80
2023-01-17T06:14:03.290Z,2.90
2023-01-17T06:15:03.411Z,2.90
2023-01-17T06:16:03.409Z,2.80
2023-01-17T06:17:03.430Z,2.80
2023-01-17T06:18:02.623Z,2.80
2023-01-17T06:19:03.193Z,2.80
2023-01-17T06:20:03.510Z,2.90
2023-01-17T06:21:03.182Z,2.90
2023-01-17T06:22:03.134Z,2.90
2023-01-17T06:23:03.146Z,2.80
2023-01-17T06:24:04.276Z,2.90
2023-01-17T06:25:03.055Z,2.80
2023-01-17T06:26:03.351Z,2.80
2023-01-17T06:27:03.208Z,2.80
2023-01-17T06:28:03.239Z,2.80
2023-01-17T06:29:03.307Z,2.80
2023-01-17T06:30:03.528Z,2.80
2023-01-17T06:31:03.455Z,2.80
2023-01-17T06:32:03.384Z,2.80
2023-01-17T06:33:03.441Z,2.80
2023-01-17T06:34:03.508Z,2.80
2023-01-17T06:35:03.553Z,2.80
2023-01-17T06:36:02.633Z,2.80
2023-01-17T06:37:02.716Z,2.80
2023-01-17T06:38:02.647Z,2.80
2023-01-17T06:39:02.629Z,2.80
2023-01-17T06:40:02.655Z,2.70
2023-01-17T06:41:02.791Z,2.70
2023-01-17T06:42:02.754Z,2.70
2023-01-17T06:43:02.862Z,2.70
2023-01-17T06:44:02.804Z,2.70
2023-01-17T06:45:02.797Z,2.70
2023-01-17T06:46:02.787Z,2.70
2023-01-17T06:47:02.838Z,2.70
2023-01-17T06:48:02.985Z,2.70
2023-01-17T06:49:02.936Z,2.60
2023-01-17T06:50:02.978Z,2.60
2023-01-17T06:51:02.901Z,2.60
2023-01-17T06:52:02.867Z,2.60
2023-01-17T06:53:02.961Z,2.60
2023-01-17T06:54:02.855Z,2.60
2023-01-17T06:55:02.849Z,2.60
2023-01-17T06:56:02.840Z,2.60
2023-01-17T06:57:02.872Z,2.60
2023-01-17T06:58:03.229Z,2.60
2023-01-17T06:59:02.804Z,2.60
2023-01-17T07:00:02.858Z,2.60
2023-01-17T07:01:02.746Z,2.60
2023-01-17T07:02:02.728Z,2.60
2023-01-17T07:03:02.722Z,2.60
2023-01-17T07:04:02.753Z,2.60
2023-01-17T07:05:02.639Z,2.60
2023-01-17T07:06:02.659Z,2.60
2023-01-17T07:07:02.645Z,2.60
2023-01-17T07:08:02.690Z,2.60
2023-01-17T07:09:02.712Z,2.60
2023-01-17T07:10:02.729Z,2.60
2023-01-17T07:11:02.853Z,2.60
2023-01-17T07:12:02.762Z,2.60
2023-01-17T07:13:02.807Z,2.50
2023-01-17T07:14:02.775Z,2.60
2023-01-17T07:15:03.004Z,2.60
2023-01-17T07:16:03.467Z,2.60
2023-01-17T07:17:03.247Z,2.60
2023-01-17T07:18:03.157Z,2.60
2023-01-17T07:19:03.176Z,2.60
2023-01-17T07:20:03.135Z,2.60
2023-01-17T07:21:03.089Z,2.60
2023-01-17T07:22:03.187Z,2.60
2023-01-17T07:23:03.099Z,2.60
2023-01-17T07:24:03.039Z,2.50
2023-01-17T07:25:02.995Z,2.50
2023-01-17T07:26:02.994Z,2.50
2023-01-17T07:27:03.027Z,2.50
2023-01-17T07:28:03.017Z,2.60
2023-01-17T07:29:03.162Z,2.50
2023-01-17T07:30:03.133Z,2.50
2023-01-17T07:31:03.204Z,2.50
2023-01-17T07:32:03.203Z,2.60
2023-01-17T07:33:03.069Z,2.50
2023-01-17T07:34:03.023Z,2.50
2023-01-17T07:35:03.151Z,2.50
2023-01-17T07:36:03.282Z,2.50
2023-01-17T07:37:03.349Z,2.50
2023-01-17T07:38:03.343Z,2.50
2023-01-17T07:39:05.454Z,2.50
2023-01-17T07:40:03.304Z,2.50
2023-01-17T07:41:03.430Z,2.50
2023-01-17T07:42:03.440Z,2.50
2023-01-17T07:43:03.452Z,2.50
2023-01-17T07:44:03.531Z,2.50
2023-01-17T07:45:03.498Z,2.50
2023-01-17T07:46:03.527Z,2.50
2023-01-17T07:47:02.665Z,2.50
2023-01-17T07:48:02.601Z,2.40
2023-01-17T07:49:02.621Z,2.50
2023-01-17T07:50:02.723Z,2.50
2023-01-17T07:51:02.718Z,2.50
2023-01-17T07:52:02.761Z,2.40
2023-01-17T07:53:02.755Z,2.50
2023-01-17T07:54:02.882Z,2.40
2023-01-17T07:55:03.476Z,2.40
2023-01-17T07:56:03.737Z,2.40
2023-01-17T07:57:02.869Z,2.40
2023-01-17T07:58:03.597Z,2.40
2023-01-17T07:59:02.698Z,2.40
2023-01-17T08:00:02.830Z,2.40
2023-01-17T08:01:03.045Z,2.40
2023-01-17T08:02:03.193Z,2.40
2023-01-17T08:03:03.037Z,2.40
2023-01-17T08:04:03.096Z,2.40
2023-01-17T08:05:03.116Z,2.50
2023-01-17T08:06:03.179Z,2.50
2023-01-17T08:07:03.178Z,2.50
2023-01-17T08:08:03.194Z,2.50
2023-01-17T08:09:03.140Z,2.50
2023-01-17T08:10:03.222Z,2.50
2023-01-17T08:11:03.334Z,2.50
2023-01-17T08:12:03.175Z,2.50
2023-01-17T08:13:03.244Z,2.50
2023-01-17T08:14:03.187Z,2.50
2023-01-17T08:15:03.287Z,2.60
2023-01-17T08:16:03.256Z,2.60
2023-01-17T08:17:03.207Z,2.60
2023-01-17T08:18:03.165Z,2.60
2023-01-17T08:19:03.186Z,2.60
2023-01-17T08:20:03.125Z,2.60
2023-01-17T08:21:03.108Z,2.60
2023-01-17T08:22:03.237Z,2.60
2023-01-17T08:23:03.191Z,2.70
2023-01-17T08:24:03.298Z,2.70
2023-01-17T08:25:03.377Z,2.70
2023-01-17T08:26:03.329Z,2.70
2023-01-17T08:27:03.336Z,2.70
2023-01-17T08:28:03.241Z,2.70
2023-01-17T08:29:03.267Z,2.70
2023-01-17T08:30:03.423Z,2.70
2023-01-17T08:31:03.367Z,2.70
2023-01-17T08:32:03.412Z,2.70
2023-01-17T08:33:03.471Z,2.70
2023-01-17T08:34:02.646Z,2.70
2023-01-17T08:35:02.825Z,2.70
2023-01-17T08:36:02.904Z,2.70
2023-01-17T08:37:03.003Z,2.70
2023-01-17T08:38:03.296Z,2.70
2023-01-17T08:39:03.366Z,2.70
2023-01-17T08:40:03.428Z,2.70
2023-01-17T08:41:03.506Z,2.70
2023-01-17T08:42:03.576Z,2.70
2023-01-17T08:43:03.504Z,2.70
2023-01-17T08:44:02.581Z,2.70
2023-01-17T08:45:02.690Z,2.70
2023-01-17T08:46:02.848Z,2.70
2023-01-17T08:47:02.710Z,2.70
2023-01-17T08:48:02.795Z,2.70
2023-01-17T08:49:03.000Z,2.70
2023-01-17T08:50:02.900Z,2.70
2023-01-17T08:51:02.932Z,2.70
2023-01-17T08:52:02.859Z,2.70
2023-01-17T08:53:02.894Z,2.70
2023-01-17T08:54:03.014Z,2.70
2023-01-17T08:55:03.090Z,2.70
2023-01-17T08:56:02.967Z,2.70
2023-01-17T08:57:03.017Z,2.70
2023-01-17T08:58:03.280Z,2.70
2023-01-17T08:59:03.352Z,2.70
2023-01-17T09:00:03.536Z,2.70
2023-01-17T09:01:03.652Z,2.70
2023-01-17T09:02:02.865Z,2.60
2023-01-17T09:03:03.046Z,2.60
2023-01-17T09:04:07.959Z,2.60
2023-01-17T09:05:02.976Z,2.60
2023-01-17T09:06:02.961Z,2.60
2023-01-17T09:07:02.940Z,2.60
2023-01-17T09:08:02.972Z,2.60
2023-01-17T09:09:03.009Z,2.60
2023-01-17T09:10:02.995Z,2.50
2023-01-17T09:11:03.000Z,2.50
2023-01-17T09:12:03.025Z,2.50
2023-01-17T09:13:03.018Z,2.40
2023-01-17T09:14:03.140Z,2.40
2023-01-17T09:15:03.222Z,2.40
2023-01-17T09:16:03.205Z,2.40
2023-01-17T09:17:03.256Z,2.40
2023-01-17T09:18:03.338Z,2.40
2023-01-17T09:19:03.306Z,2.40
2023-01-17T09:20:03.426Z,2.40
2023-01-17T09:21:03.446Z,2.40
2023-01-17T09:22:03.375Z,2.40
2023-01-17T09:23:03.444Z,2.50
2023-01-17T09:24:03.407Z,2.50
2023-01-17T09:25:03.402Z,2.50
2023-01-17T09:26:03.406Z,2.50
2023-01-17T09:27:03.417Z,2.50
2023-01-17T09:28:03.404Z,2.50
2023-01-17T09:29:03.529Z,2.50
2023-01-17T09:30:03.497Z,2.60
2023-01-17T09:31:03.582Z,2.60
2023-01-17T09:32:02.651Z,2.60
2023-01-17T09:33:03.587Z,2.60
2023-01-17T09:34:02.613Z,2.60
2023-01-17T09:35:02.722Z,2.60
2023-01-17T09:36:02.731Z,2.60
2023-01-17T09:37:02.781Z,2.60
2023-01-17T09:38:02.810Z,2.60
2023-01-17T09:39:02.815Z,2.60
2023-01-17T09:40:02.975Z,2.70
2023-01-17T09:41:03.363Z,2.70
2023-01-17T09:42:03.349Z,2.70
2023-01-17T09:43:03.383Z,2.70
2023-01-17T09:44:03.272Z,2.70
2023-01-17T09:45:03.499Z,2.70
2023-01-17T09:46:03.512Z,2.70
2023-01-17T09:47:03.576Z,2.80
2023-01-17T09:48:03.459Z,2.80
2023-01-17T09:49:03.543Z,2.80
2023-01-17T09:50:02.619Z,2.80
2023-01-17T09:51:02.665Z,2.80
2023-01-17T09:52:02.754Z,2.90
2023-01-17T09:53:02.760Z,2.90
2023-01-17T09:54:02.655Z,2.90
2023-01-17T09:55:02.823Z,2.90
2023-01-17T09:56:03.040Z,2.90
2023-01-17T09:57:03.048Z,2.90
2023-01-17T09:58:03.178Z,2.90
2023-01-17T09:59:03.111Z,2.90
2023-01-17T10:00:04.106Z,2.80
2023-01-17T10:01:03.393Z,2.80
2023-01-17T10:02:03.330Z,2.80
2023-01-17T10:03:03.287Z,2.80
2023-01-17T10:04:03.514Z,2.80
2023-01-17T10:05:02.890Z,2.80
2023-01-17T10:06:02.953Z,2.80
2023-01-17T10:07:03.016Z,2.70
2023-01-17T10:08:04.589Z,2.70
2023-01-17T10:09:03.028Z,2.70
2023-01-17T10:10:03.160Z,2.70
2023-01-17T10:11:03.114Z,2.70
2023-01-17T10:12:03.006Z,2.70
2023-01-17T10:13:03.010Z,2.70
2023-01-17T10:14:03.147Z,2.70
2023-01-17T10:15:03.036Z,2.70
2023-01-17T10:16:03.126Z,2.70
2023-01-17T10:17:03.228Z,2.70
2023-01-17T10:18:03.426Z,2.70
2023-01-17T10:19:03.472Z,2.70
2023-01-17T10:20:02.745Z,2.70
2023-01-17T10:21:02.635Z,2.70
2023-01-17T10:22:02.678Z,2.70
2023-01-17T10:23:03.037Z,2.80
2023-01-17T10:24:03.134Z,2.80
2023-01-17T10:25:03.126Z,2.80
2023-01-17T10:26:03.573Z,2.80
2023-01-17T10:27:03.336Z,2.80
2023-01-17T10:28:03.361Z,2.90
2023-01-17T10:29:03.317Z,2.90
2023-01-17T10:30:03.250Z,3.00
2023-01-17T10:31:03.212Z,3.00
2023-01-17T10:32:03.281Z,3.00
2023-01-17T10:33:03.423Z,3.00
2023-01-17T10:34:03.376Z,3.00
2023-01-17T10:35:03.501Z,3.00
2023-01-17T10:36:03.494Z,3.10
2023-01-17T10:37:02.593Z,3.10
2023-01-17T10:38:02.755Z,3.10
2023-01-17T10:39:02.865Z,3.10
2023-01-17T10:40:02.967Z,3.20
2023-01-17T10:41:03.067Z,3.20
2023-01-17T10:42:02.917Z,3.20
2023-01-17T10:43:02.958Z,3.30
2023-01-17T10:44:03.306Z,3.30
2023-01-17T10:45:03.486Z,3.30
2023-01-17T10:46:02.710Z,3.40
2023-01-17T10:47:02.687Z,3.40
2023-01-17T10:48:02.879Z,3.50
2023-01-17T10:49:07.971Z,3.50
2023-01-17T10:50:03.049Z,3.60
2023-01-17T10:51:03.184Z,3.60
2023-01-17T10:52:03.124Z,3.60
2023-01-17T10:53:03.186Z,3.70
2023-01-17T10:54:03.218Z,3.70
2023-01-17T10:55:03.547Z,3.80
2023-01-17T10:56:03.618Z,3.80
2023-01-17T10:57:02.657Z,3.80
2023-01-17T10:58:02.585Z,3.80
2023-01-17T10:59:02.647Z,3.80
2023-01-17T11:00:02.603Z,3.80
2023-01-17T11:01:02.720Z,3.90
2023-01-17T11:02:03.022Z,3.80
2023-01-17T11:03:03.442Z,3.80
2023-01-17T11:04:03.221Z,3.80
2023-01-17T11:05:03.181Z,3.80
2023-01-17T11:06:03.248Z,3.80
2023-01-17T11:07:03.353Z,3.80
2023-01-17T11:08:03.444Z,3.80
2023-01-17T11:09:03.361Z,3.80
2023-01-17T11:10:02.595Z,3.80
2023-01-17T11:11:02.783Z,3.80
2023-01-17T11:12:03.182Z,3.80
2023-01-17T11:13:03.176Z,3.80
2023-01-17T11:14:03.317Z,3.90
2023-01-17T11:15:03.470Z,3.90
2023-01-17T11:16:03.576Z,4.00
2023-01-17T11:17:02.706Z,4.00
2023-01-17T11:18:02.866Z,4.00
2023-01-17T11:19:02.863Z,4.10
2023-01-17T11:20:02.837Z,4.10
2023-01-17T11:21:03.049Z,4.10
2023-01-17T11:22:03.415Z,4.10
2023-01-17T11:23:03.470Z,4.10
2023-01-17T11:24:02.612Z,4.10
2023-01-17T11:25:02.727Z,4.20
2023-01-17T11:26:02.940Z,4.10
2023-01-17T11:27:03.017Z,4.10
2023-01-17T11:28:03.327Z,4.10
2023-01-17T11:29:03.634Z,4.10
2023-01-17T11:30:02.989Z,4.10
2023-01-17T11:31:02.898Z,4.10
2023-01-17T11:32:02.893Z,4.10
2023-01-17T11:33:02.918Z,4.10
2023-01-17T11:34:02.953Z,4.00
2023-01-17T11:35:03.100Z,4.00
2023-01-17T11:36:03.124Z,4.00
2023-01-17T11:37:03.110Z,4.00
2023-01-17T11:38:03.166Z,3.90
2023-01-17T11:39:03.376Z,3.90
2023-01-17T11:40:03.363Z,3.90
2023-01-17T11:41:03.593Z,3.90
2023-01-17T11:42:02.715Z,3.90
2023-01-17T11:43:02.749Z,3.90
2023-01-17T11:44:03.309Z,3.90
2023-01-17T11:45:03.468Z,3.90
2023-01-17T11:46:03.536Z,3.90
2023-01-17T11:47:02.666Z,3.90
2023-01-17T11:48:02.802Z,3.90
2023-01-17T11:49:03.039Z,3.90
2023-01-17T11:50:02.917Z,3.90
2023-01-17T11:51:03.122Z,3.90
2023-01-17T11:52:03.507Z,3.90
2023-01-17T11:53:02.658Z,3.90
2023-01-17T11:54:03.567Z,3.90
2023-01-17T11:55:02.612Z,3.90
2023-01-17T11:56:02.888Z,3.90
2023-01-17T11:57:02.914Z,3.90
2023-01-17T11:58:03.107Z,3.90
2023-01-17T11:59:08.381Z,3.90
2023-01-17T12:00:03.914Z,3.90
2023-01-17T12:01:02.630Z,3.90
2023-01-17T12:02:02.613Z,3.80
2023-01-17T12:03:02.710Z,3.80
2023-01-17T12:04:02.847Z,3.80
2023-01-17T12:05:02.815Z,3.80
2023-01-17T12:06:02.855Z,3.80
2023-01-17T12:07:02.733Z,3.80
2023-01-17T12:08:02.842Z,3.80
2023-01-17T12:09:02.969Z,3.80
2023-01-17T12:10:03.092Z,3.80
2023-01-17T12:11:03.013Z,3.80
2023-01-17T12:12:04.423Z,3.80
2023-01-17T12:13:03.605Z,3.80
2023-01-17T12:14:03.607Z,3.80
2023-01-17T12:15:02.758Z,3.80
2023-01-17T12:16:02.860Z,3.80
2023-01-17T12:17:03.025Z,3.80
2023-01-17T12:18:03.326Z,3.80
2023-01-17T12:19:03.011Z,3.80
2023-01-17T12:20:03.042Z,3.80
2023-01-17T12:21:03.015Z,3.80
2023-01-17T12:22:03.105Z,3.80
2023-01-17T12:23:03.159Z,3.80
2023-01-17T12:24:03.177Z,3.80
2023-01-17T12:25:03.420Z,3.80
2023-01-17T12:26:03.488Z,3.80
2023-01-17T12:27:02.824Z,3.80
2023-01-17T12:28:02.726Z,3.80
2023-01-17T12:29:02.819Z,3.80
2023-01-17T12:30:02.987Z,3.80
2023-01-17T12:31:03.323Z,3.80
2023-01-17T12:32:03.271Z,3.80
2023-01-17T12:33:03.541Z,3.80
2023-01-17T12:34:03.453Z,3.80
2023-01-17T12:35:02.836Z,3.80
2023-01-17T12:36:02.771Z,3.90
2023-01-17T12:37:02.722Z,3.80
2023-01-17T12:38:05.084Z,3.80
2023-01-17T12:39:02.859Z,3.80
2023-01-17T12:40:02.885Z,3.80
2023-01-17T12:41:02.887Z,3.90
2023-01-17T12:42:02.910Z,3.90
2023-01-17T12:43:03.037Z,3.80
2023-01-17T12:44:03.023Z,3.90
2023-01-17T12:45:03.131Z,3.90
2023-01-17T12:46:03.127Z,3.90
2023-01-17T12:47:03.198Z,3.90
2023-01-17T12:48:03.124Z,3.90
2023-01-17T12:49:03.156Z,3.90
2023-01-17T12:50:03.241Z,3.90
2023-01-17T12:51:03.203Z,3.90
2023-01-17T12:52:03.195Z,3.90
2023-01-17T12:53:03.234Z,4.00
2023-01-17T12:54:03.277Z,3.90
2023-01-17T12:55:03.337Z,4.00
2023-01-17T12:56:03.403Z,4.00
2023-01-17T12:57:03.358Z,4.00
2023-01-17T12:58:03.349Z,4.00
2023-01-17T12:59:03.401Z,4.00
2023-01-17T13:00:03.389Z,4.00
2023-01-17T13:01:02.732Z,4.00
2023-01-17T13:02:02.899Z,4.00
2023-01-17T13:03:02.771Z,4.10
2023-01-17T13:04:02.987Z,4.10
2023-01-17T13:05:03.945Z,4.10
2023-01-17T13:06:03.815Z,4.10
2023-01-17T13:07:03.454Z,4.10
2023-01-17T13:08:02.680Z,4.20
2023-01-17T13:09:02.947Z,4.20
2023-01-17T13:10:03.227Z,4.20
2023-01-17T13:11:03.408Z,4.20
2023-01-17T13:12:03.457Z,4.20
2023-01-17T13:13:03.493Z,4.20
2023-01-17T13:14:03.589Z,4.20
2023-01-17T13:15:03.529Z,4.20
2023-01-17T13:16:03.583Z,4.20
2023-01-17T13:17:02.789Z,4.20
2023-01-17T13:18:02.748Z,4.20